Time;durP1;ratioP1;P1;durP2;ratioP2;P2;SDS_P1;SDS_P2;PMS_P1;PMS_P2;Temp;Humidity;BMP_temperature;BMP_pressure;BME280_temperature;BME280_humidity;BME280_pressure;Samples;Min_cycle;Max_cycle;Signal;HPM_P1;HPM_P2
2023/03/15 00:02:04;;;;;;;;;;;;;;;21.19;32.50;96746.81;5056536;28;20406;-84
2023/03/15 00:04:33;;;;;;;;;;;;;;;19.63;36.31;96768.34;5040149;28;19967;-85
2023/03/15 00:06:59;;;;;;;;;;;;;;;19.25;36.47;96779.94;5054513;28;19960;-84
2023/03/15 00:09:26;;;;;;;;;;;;;;;18.69;39.70;96777.66;5052628;28;19927;-84
2023/03/15 00:11:55;;;;;;;;;;;;;;;20.04;35.24;96801.91;5052488;28;19935;-84
2023/03/15 00:14:21;;;;;;;;;;;;;;;19.80;34.14;96803.31;5045748;28;20427;-84
2023/03/15 00:16:47;;;;;;;;;;;;;;;19.28;34.51;96820.03;5057646;28;19974;-84
2023/03/15 00:19:13;;;;;;;;;;;;;;;19.04;34.42;96844.41;5054964;28;19962;-84
2023/03/15 00:21:42;;;;;;;;;;;;;;;18.45;35.60;96852.78;5047998;28;19927;-84
2023/03/15 00:24:10;;;;;;;;;;;;;;;18.18;35.10;96865.94;5052875;28;20023;-84
2023/03/15 00:26:36;;;;;;;;;;;;;;;17.91;36.18;96873.53;5063721;28;19917;-84
2023/03/15 00:29:03;;;;;;;;;;;;;;;17.34;37.86;96890.22;5051798;28;20395;-83
2023/03/15 00:31:29;;;;;;;;;;;;;;;17.61;36.00;96909.72;5048866;28;19921;-84
2023/03/15 00:33:55;;;;;;;;;;;;;;;17.21;37.98;96914.19;5052069;28;19920;-84
2023/03/15 00:36:24;;;;;;;;;;;;;;;16.65;38.41;96926.75;5046992;28;20015;-84
2023/03/15 00:38:52;;;;;;;;;;;;;;;17.05;35.33;96938.97;5050696;28;20407;-84
2023/03/15 00:41:19;;;;;;;;;;;;;;;16.11;36.82;96933.16;5053098;28;19950;-84
2023/03/15 00:43:45;;;;;;;;;;;;;;;17.61;34.42;96963.22;5051311;28;19968;-84
2023/03/15 00:46:12;;;;;;;;;;;;;;;17.65;34.42;96961.19;5046216;28;19925;-84
2023/03/15 00:48:38;;;;;;;;;;;;;;;18.35;33.00;96975.97;5052605;28;19920;-84
2023/03/15 00:51:08;;;;;;;;;;;;;;;18.79;32.68;96996.28;5053368;28;19921;-84
2023/03/15 00:53:35;;;;;;;;;;;;;;;18.43;33.19;96993.31;5053361;28;19927;-84
2023/03/15 00:56:12;;;;;;;;;;;;;;;16.87;36.37;97018.78;5046132;28;20080;-83
2023/03/15 00:58:38;;;;;;;;;;;;;;;15.60;37.82;97025.25;5050235;28;19937;-86
2023/03/15 01:01:15;;;;;;;;;;;;;;;15.95;36.50;97024.25;5056063;28;19921;-83
2023/03/15 01:03:42;;;;;;;;;;;;;;;15.96;36.25;97018.31;5051344;28;19931;-84
2023/03/15 01:06:09;;;;;;;;;;;;;;;16.62;35.72;97043.94;5051906;28;19921;-84
2023/03/15 01:08:36;;;;;;;;;;;;;;;16.00;36.75;97045.97;5063369;28;20015;-83
2023/03/15 01:11:02;;;;;;;;;;;;;;;15.87;36.67;97053.94;5052994;28;19943;-84
2023/03/15 01:13:28;;;;;;;;;;;;;;;15.15;39.56;97073.97;5059311;28;19971;-83
2023/03/15 01:15:54;;;;;;;;;;;;;;;14.31;40.48;97072.06;5048003;28;20384;-83
2023/03/15 01:18:20;;;;;;;;;;;;;;;15.08;39.10;97051.88;5052746;28;19921;-83
2023/03/15 01:20:46;;;;;;;;;;;;;;;15.17;37.82;97080.66;5050816;28;20284;-83
2023/03/15 01:23:12;;;;;;;;;;;;;;;14.21;41.30;97098.44;5045042;28;19920;-83
2023/03/15 01:25:39;;;;;;;;;;;;;;;16.36;35.33;97089.63;5051678;28;19971;-84
2023/03/15 01:28:05;;;;;;;;;;;;;;;17.00;34.05;97092.72;5044629;28;20046;-83
2023/03/15 01:30:31;;;;;;;;;;;;;;;16.90;34.40;97092.78;5051033;28;19924;-82
2023/03/15 01:32:57;;;;;;;;;;;;;;;16.12;36.55;97106.41;5052322;28;19928;-84
2023/03/15 01:35:23;;;;;;;;;;;;;;;16.20;35.92;97119.00;5055913;28;19924;-83
2023/03/15 01:37:50;;;;;;;;;;;;;;;16.93;33.89;97130.78;5049813;28;19921;-84
2023/03/15 01:40:17;;;;;;;;;;;;;;;16.92;33.43;97140.31;5053834;28;20087;-83
2023/03/15 01:43:01;;;;;;;;;;;;;;;17.69;31.64;97144.34;5052759;28;20015;-83
2023/03/15 01:45:46;;;;;;;;;;;;;;;17.11;31.86;97150.84;5038656;28;19960;-84
2023/03/15 01:48:13;;;;;;;;;;;;;;;16.95;33.03;97159.69;5050244;28;19974;-83
2023/03/15 01:50:39;;;;;;;;;;;;;;;16.88;33.52;97143.13;5052254;28;19917;-83
2023/03/15 01:53:05;;;;;;;;;;;;;;;16.42;34.36;97160.03;5053819;28;20016;-84
2023/03/15 01:55:31;;;;;;;;;;;;;;;17.39;32.90;97163.66;5052325;28;19968;-84
2023/03/15 01:57:59;;;;;;;;;;;;;;;16.25;33.91;97158.16;5049376;28;19967;-84
2023/03/15 02:00:26;;;;;;;;;;;;;;;16.11;33.95;97162.97;5042596;28;19939;-84
2023/03/15 02:02:56;;;;;;;;;;;;;;;16.23;33.57;97179.13;5048741;28;20376;-83
2023/03/15 02:05:34;;;;;;;;;;;;;;;16.36;33.48;97166.41;5046858;28;19933;-83
2023/03/15 02:08:01;;;;;;;;;;;;;;;16.49;33.17;97186.91;5049195;28;19921;-83
2023/03/15 02:10:34;;;;;;;;;;;;;;;16.89;32.54;97188.25;5044973;28;19966;-83
2023/03/15 02:13:01;;;;;;;;;;;;;;;16.42;32.36;97181.41;5055773;28;19924;-83
2023/03/15 02:15:27;;;;;;;;;;;;;;;16.00;34.03;97196.25;5049902;28;19928;-83
2023/03/15 02:17:53;;;;;;;;;;;;;;;15.73;33.97;97195.13;5047858;28;19928;-83
2023/03/15 02:20:26;;;;;;;;;;;;;;;15.57;33.63;97197.53;5051367;28;19920;-84
2023/03/15 02:23:04;;;;;;;;;;;;;;;14.71;35.51;97203.47;5049723;28;19931;-83
2023/03/15 02:25:33;;;;;;;;;;;;;;;13.88;36.57;97211.09;5049603;28;19920;-83
2023/03/15 02:28:00;;;;;;;;;;;;;;;14.34;36.69;97203.81;5051917;28;19928;-83
2023/03/15 02:30:26;;;;;;;;;;;;;;;14.97;35.49;97216.94;5055175;28;19963;-83
2023/03/15 02:32:52;;;;;;;;;;;;;;;13.94;37.57;97201.25;5054020;28;19924;-83
2023/03/15 02:35:22;;;;;;;;;;;;;;;14.06;36.62;97207.22;5053118;28;20470;-84
2023/03/15 02:37:49;;;;;;;;;;;;;;;15.58;32.95;97221.28;5051625;28;20300;-84
2023/03/15 02:40:19;;;;;;;;;;;;;;;15.17;34.02;97207.03;5049919;28;19921;-83
2023/03/15 02:42:45;;;;;;;;;;;;;;;15.07;33.83;97214.19;5053408;28;19921;-84
2023/03/15 02:45:12;;;;;;;;;;;;;;;16.12;33.10;97237.34;5066270;28;20388;-83
2023/03/15 02:47:38;;;;;;;;;;;;;;;15.14;34.84;97241.84;5048318;28;19916;-83
2023/03/15 02:50:06;;;;;;;;;;;;;;;14.38;35.30;97238.53;5058935;28;19928;-83
2023/03/15 02:52:32;;;;;;;;;;;;;;;15.56;33.26;97257.66;5052617;28;19956;-84
2023/03/15 02:54:58;;;;;;;;;;;;;;;16.26;32.61;97251.13;5045744;28;20305;-84
2023/03/15 02:57:24;;;;;;;;;;;;;;;17.03;30.93;97257.47;5046522;28;19920;-84
2023/03/15 02:59:50;;;;;;;;;;;;;;;17.85;29.80;97261.19;5050592;28;19921;-84
2023/03/15 03:02:17;;;;;;;;;;;;;;;17.39;29.83;97269.06;5044596;28;19975;-83
2023/03/15 03:04:43;;;;;;;;;;;;;;;18.20;28.87;97283.03;5053737;28;19925;-84
2023/03/15 03:07:09;;;;;;;;;;;;;;;18.42;29.17;97289.09;5054476;28;19925;-84
2023/03/15 03:09:35;;;;;;;;;;;;;;;18.68;28.02;97293.19;5053060;28;19921;-84
2023/03/15 03:12:01;;;;;;;;;;;;;;;18.49;28.29;97298.19;5050976;28;19924;-84
2023/03/15 03:14:27;;;;;;;;;;;;;;;16.03;33.24;97297.09;5053270;28;20050;-83
2023/03/15 03:16:53;;;;;;;;;;;;;;;16.67;32.30;97284.63;5053038;28;19917;-83
2023/03/15 03:19:24;;;;;;;;;;;;;;;15.63;33.67;97288.06;5049715;28;20265;-83
2023/03/15 03:21:52;;;;;;;;;;;;;;;14.75;35.87;97296.22;5054017;28;20005;-83
2023/03/15 03:24:18;;;;;;;;;;;;;;;16.03;33.61;97305.41;5053063;28;19980;-83
2023/03/15 03:26:44;;;;;;;;;;;;;;;16.76;31.43;97293.28;5054566;28;19924;-84
2023/03/15 03:29:10;;;;;;;;;;;;;;;17.41;30.57;97298.00;5051418;28;19921;-83
2023/03/15 03:31:37;;;;;;;;;;;;;;;16.29;32.48;97302.19;5056370;28;19944;-83
2023/03/15 03:34:03;;;;;;;;;;;;;;;17.97;28.69;97309.84;5054769;28;19925;-84
2023/03/15 03:36:29;;;;;;;;;;;;;;;19.07;27.10;97301.78;5050752;28;19928;-83
2023/03/15 03:38:56;;;;;;;;;;;;;;;17.53;29.55;97310.63;5053123;28;19925;-83
2023/03/15 03:41:22;;;;;;;;;;;;;;;17.65;29.01;97315.69;5051977;28;19978;-84
2023/03/15 03:43:48;;;;;;;;;;;;;;;18.14;28.29;97314.44;5048157;28;19925;-83
2023/03/15 03:46:14;;;;;;;;;;;;;;;17.67;29.13;97318.84;5061815;28;20141;-84
2023/03/15 03:48:40;;;;;;;;;;;;;;;17.22;29.60;97315.97;5052142;28;20380;-83
2023/03/15 03:51:06;;;;;;;;;;;;;;;16.75;30.39;97316.66;5044322;28;19925;-84
2023/03/15 03:53:32;;;;;;;;;;;;;;;17.38;28.76;97314.69;5053069;28;20424;-84
2023/03/15 03:55:58;;;;;;;;;;;;;;;17.56;29.26;97313.38;5051381;28;19963;-84
2023/03/15 03:58:24;;;;;;;;;;;;;;;18.83;26.86;97320.41;5053217;28;19971;-85
2023/03/15 04:00:53;;;;;;;;;;;;;;;18.29;27.75;97324.19;5052242;28;19982;-84
2023/03/15 04:03:26;;;;;;;;;;;;;;;16.70;30.94;97339.25;5064321;28;20284;-84
2023/03/15 04:05:52;;;;;;;;;;;;;;;17.02;30.13;97333.53;5053786;28;19929;-84
2023/03/15 04:08:19;;;;;;;;;;;;;;;17.19;29.62;97350.09;5055637;28;19921;-84
2023/03/15 04:10:48;;;;;;;;;;;;;;;16.54;30.42;97342.47;5054258;28;19928;-84
2023/03/15 04:13:14;;;;;;;;;;;;;;;17.08;29.50;97340.25;5056859;28;20498;-83
2023/03/15 04:15:40;;;;;;;;;;;;;;;17.06;29.40;97340.63;5054092;28;19932;-84
2023/03/15 04:18:06;;;;;;;;;;;;;;;15.82;32.02;97351.28;5054024;28;19917;-84
2023/03/15 04:20:33;;;;;;;;;;;;;;;16.90;30.02;97354.19;5055061;28;19924;-84
2023/03/15 04:22:59;;;;;;;;;;;;;;;16.72;30.05;97350.72;5054113;28;20434;-84
2023/03/15 04:25:26;;;;;;;;;;;;;;;17.51;28.48;97349.06;5055084;28;19917;-83
2023/03/15 04:27:58;;;;;;;;;;;;;;;17.43;29.59;97347.56;5054198;28;19947;-83
2023/03/15 04:30:25;;;;;;;;;;;;;;;16.72;30.57;97350.72;5057710;28;19943;-84
2023/03/15 04:32:58;;;;;;;;;;;;;;;18.70;26.77;97358.31;5053510;28;19925;-84
2023/03/15 04:35:28;;;;;;;;;;;;;;;18.74;27.18;97347.16;5052467;28;19924;-84
2023/03/15 04:37:54;;;;;;;;;;;;;;;15.54;32.13;97367.88;5036894;28;20055;-84
2023/03/15 04:40:22;;;;;;;;;;;;;;;16.11;29.78;97373.41;5054704;28;19917;-84
2023/03/15 04:42:49;;;;;;;;;;;;;;;16.89;29.37;97372.03;5051403;28;19928;-84
2023/03/15 04:45:15;;;;;;;;;;;;;;;18.45;27.21;97380.81;5052385;28;20067;-85
2023/03/15 04:47:41;;;;;;;;;;;;;;;19.89;25.04;97371.75;5065392;28;19925;-84
2023/03/15 04:50:08;;;;;;;;;;;;;;;18.18;27.97;97382.63;5051090;28;20379;-84
2023/03/15 04:52:34;;;;;;;;;;;;;;;15.67;32.35;97395.97;5050062;28;19963;-84
2023/03/15 04:55:00;;;;;;;;;;;;;;;16.82;28.92;97385.94;5051057;28;19925;-85
2023/03/15 04:57:26;;;;;;;;;;;;;;;17.24;28.57;97388.50;5052923;28;20418;-84
2023/03/15 04:59:52;;;;;;;;;;;;;;;16.66;29.25;97380.06;5049304;28;20007;-83
2023/03/15 05:02:18;;;;;;;;;;;;;;;16.10;29.71;97386.47;5045804;28;19960;-85
2023/03/15 05:04:44;;;;;;;;;;;;;;;14.50;32.95;97403.88;5047276;28;19932;-84
2023/03/15 05:07:10;;;;;;;;;;;;;;;16.16;29.92;97409.00;5054376;28;20391;-84
2023/03/15 05:09:36;;;;;;;;;;;;;;;15.47;32.36;97403.06;5052830;28;19964;-83
2023/03/15 05:12:03;;;;;;;;;;;;;;;17.69;27.25;97396.97;5051619;28;19920;-84
2023/03/15 05:14:30;;;;;;;;;;;;;;;18.08;27.18;97402.19;5050662;28;20388;-84
2023/03/15 05:16:58;;;;;;;;;;;;;;;18.84;25.62;97410.97;5048203;28;19990;-85
2023/03/15 05:19:24;;;;;;;;;;;;;;;19.24;25.37;97409.28;5054910;28;19967;-84
2023/03/15 05:21:50;;;;;;;;;;;;;;;18.55;26.56;97418.81;5052212;28;20343;-85
2023/03/15 05:24:16;;;;;;;;;;;;;;;18.45;25.84;97435.59;5047244;28;19921;-85
2023/03/15 05:26:45;;;;;;;;;;;;;;;18.93;25.72;97429.94;5059742;28;19921;-85
2023/03/15 05:29:11;;;;;;;;;;;;;;;19.39;24.99;97426.63;5049155;28;19925;-85
2023/03/15 05:31:38;;;;;;;;;;;;;;;20.68;23.64;97426.53;5046632;28;19925;-84
2023/03/15 05:34:04;;;;;;;;;;;;;;;20.64;23.45;97439.75;5046368;28;19932;-84
2023/03/15 05:36:31;;;;;;;;;;;;;;;19.84;24.63;97444.66;5048392;28;19921;-85
2023/03/15 05:38:57;;;;;;;;;;;;;;;18.72;25.40;97446.88;5047052;28;19928;-85
2023/03/15 05:41:23;;;;;;;;;;;;;;;18.98;25.60;97452.53;5050200;28;19920;-86
2023/03/15 05:43:49;;;;;;;;;;;;;;;19.86;24.04;97458.97;5050351;28;19928;-88
2023/03/15 05:46:15;;;;;;;;;;;;;;;19.91;23.99;97458.47;5060806;28;19928;-86
2023/03/15 05:48:41;;;;;;;;;;;;;;;19.47;25.17;97464.28;5047947;28;19920;-87
2023/03/15 05:51:07;;;;;;;;;;;;;;;19.55;24.71;97471.34;5047602;28;19921;-88
2023/03/15 05:53:33;;;;;;;;;;;;;;;20.74;24.00;97471.47;5055805;28;20400;-86
2023/03/15 05:55:59;;;;;;;;;;;;;;;19.60;25.11;97474.47;5032186;28;20311;-86
2023/03/15 05:58:26;;;;;;;;;;;;;;;19.37;25.18;97482.69;5037797;28;19920;-86
2023/03/15 06:00:52;;;;;;;;;;;;;;;17.95;28.05;97485.22;5052320;28;19921;-86
2023/03/15 06:03:18;;;;;;;;;;;;;;;19.07;24.75;97482.63;5051740;28;20015;-86
2023/03/15 06:05:44;;;;;;;;;;;;;;;18.89;26.28;97491.19;5052925;28;20328;-87
2023/03/15 06:08:10;;;;;;;;;;;;;;;19.99;24.68;97491.41;5053530;28;19917;-86
2023/03/15 06:10:36;;;;;;;;;;;;;;;19.54;25.88;97500.38;5053059;28;20434;-85
2023/03/15 06:13:02;;;;;;;;;;;;;;;19.41;25.27;97505.72;5052853;28;19975;-86
2023/03/15 06:15:28;;;;;;;;;;;;;;;19.36;25.76;97522.88;5053167;28;19921;-86
2023/03/15 06:17:54;;;;;;;;;;;;;;;19.85;25.13;97519.47;5051394;28;19967;-88
2023/03/15 06:20:20;;;;;;;;;;;;;;;19.09;25.24;97521.97;5051515;28;20384;-86
2023/03/15 06:22:46;;;;;;;;;;;;;;;19.73;25.28;97525.59;5052918;28;19917;-86
2023/03/15 06:25:12;;;;;;;;;;;;;;;20.35;23.32;97529.91;5051319;28;19927;-87
2023/03/15 06:27:38;;;;;;;;;;;;;;;20.44;23.84;97535.75;5050819;28;19983;-87
2023/03/15 06:30:05;;;;;;;;;;;;;;;20.39;23.42;97539.00;5051770;28;19921;-86
2023/03/15 06:32:31;;;;;;;;;;;;;;;19.79;24.83;97543.41;5052471;28;19925;-86
2023/03/15 06:34:57;;;;;;;;;;;;;;;20.05;24.10;97546.66;5053005;28;19948;-87
2023/03/15 06:37:23;;;;;;;;;;;;;;;19.91;24.40;97544.84;5053147;28;20388;-87
2023/03/15 06:39:50;;;;;;;;;;;;;;;20.40;24.32;97546.94;5052211;28;19970;-86
2023/03/15 06:42:16;;;;;;;;;;;;;;;20.13;23.63;97551.72;5051087;28;19921;-87
2023/03/15 06:44:42;;;;;;;;;;;;;;;19.54;24.62;97542.94;5052433;28;19924;-87
2023/03/15 06:47:09;;;;;;;;;;;;;;;20.08;23.58;97549.38;5051974;28;20019;-87
2023/03/15 06:49:36;;;;;;;;;;;;;;;18.59;25.27;97557.81;5050806;28;19979;-86
2023/03/15 06:52:03;;;;;;;;;;;;;;;19.46;25.05;97554.59;5064896;28;19921;-86
2023/03/15 06:54:29;;;;;;;;;;;;;;;18.85;26.14;97557.19;5052940;28;19939;-87
2023/03/15 06:56:55;;;;;;;;;;;;;;;17.04;29.29;97584.28;5053125;28;19924;-85
2023/03/15 06:59:21;;;;;;;;;;;;;;;16.93;28.42;97586.28;5065065;28;20007;-86
2023/03/15 07:01:48;;;;;;;;;;;;;;;18.36;26.65;97593.69;5065005;28;20011;-86
2023/03/15 07:04:14;;;;;;;;;;;;;;;18.56;27.05;97584.44;5043671;28;20274;-87
2023/03/15 07:06:40;;;;;;;;;;;;;;;19.45;25.34;97581.63;5049810;28;19962;-87
2023/03/15 07:09:06;;;;;;;;;;;;;;;18.31;26.36;97586.56;5052639;28;20326;-86
2023/03/15 07:11:32;;;;;;;;;;;;;;;17.66;28.01;97587.34;5053019;28;20012;-87
2023/03/15 07:13:58;;;;;;;;;;;;;;;18.51;25.79;97584.88;5059180;28;19920;-87
2023/03/15 07:16:25;;;;;;;;;;;;;;;18.37;26.88;97586.91;5056546;28;19917;-86
2023/03/15 07:18:54;;;;;;;;;;;;;;;18.31;26.50;97586.56;5056064;28;19928;-87
2023/03/15 07:21:20;;;;;;;;;;;;;;;18.39;26.25;97592.88;5044399;28;19944;-87
2023/03/15 07:23:46;;;;;;;;;;;;;;;17.76;26.99;97585.72;5043670;28;19917;-86
2023/03/15 07:26:12;;;;;;;;;;;;;;;19.55;24.83;97586.28;5055020;28;19920;-87
2023/03/15 07:28:38;;;;;;;;;;;;;;;17.64;28.64;97605.59;5055036;28;19952;-86
2023/03/15 07:31:04;;;;;;;;;;;;;;;18.46;25.09;97601.22;5056180;28;19956;-86
2023/03/15 07:33:31;;;;;;;;;;;;;;;17.80;27.60;97608.69;5055436;28;19921;-86
2023/03/15 07:35:58;;;;;;;;;;;;;;;17.27;28.20;97614.34;5056023;28;19924;-85
2023/03/15 07:38:27;;;;;;;;;;;;;;;15.77;31.27;97617.38;5055532;28;19924;-86
2023/03/15 07:40:53;;;;;;;;;;;;;;;16.76;28.31;97614.81;5055260;28;19916;-87
2023/03/15 07:43:20;;;;;;;;;;;;;;;17.11;28.87;97627.84;5055929;28;19960;-87
2023/03/15 07:45:46;;;;;;;;;;;;;;;16.07;30.92;97630.13;5056057;28;19959;-86
2023/03/15 07:48:12;;;;;;;;;;;;;;;17.72;27.97;97619.03;5055118;28;19952;-87
2023/03/15 07:50:38;;;;;;;;;;;;;;;17.69;27.75;97625.38;5055479;28;20436;-87
2023/03/15 07:53:04;;;;;;;;;;;;;;;19.84;24.91;97623.72;5055533;28;19936;-88
2023/03/15 07:55:31;;;;;;;;;;;;;;;18.64;28.20;97638.00;5055819;28;20019;-86
2023/03/15 07:57:57;;;;;;;;;;;;;;;17.32;28.99;97641.69;5054882;28;19943;-87
2023/03/15 08:00:23;;;;;;;;;;;;;;;17.67;27.13;97638.88;5075923;28;19916;-87
2023/03/15 08:02:49;;;;;;;;;;;;;;;17.80;28.77;97647.56;5068544;28;19928;-87
2023/03/15 08:05:17;;;;;;;;;;;;;;;17.38;29.86;97650.41;5054725;28;20451;-87
2023/03/15 08:07:47;;;;;;;;;;;;;;;18.08;28.18;97660.53;5055363;28;19921;-87
2023/03/15 08:10:14;;;;;;;;;;;;;;;18.30;25.40;97650.88;5055416;28;19957;-88
2023/03/15 08:12:41;;;;;;;;;;;;;;;18.71;27.29;97651.06;5055526;28;19936;-87
2023/03/15 08:15:09;;;;;;;;;;;;;;;19.26;24.64;97649.00;5055540;28;20322;-87
2023/03/15 08:17:35;;;;;;;;;;;;;;;18.08;27.05;97666.88;5055344;28;19924;-86
2023/03/15 08:20:01;;;;;;;;;;;;;;;17.55;27.80;97660.72;5054391;28;19921;-87
2023/03/15 08:22:29;;;;;;;;;;;;;;;18.35;26.36;97667.94;5053705;28;20388;-88
2023/03/15 08:24:56;;;;;;;;;;;;;;;16.32;29.83;97664.22;5055329;28;20287;-86
2023/03/15 08:27:23;;;;;;;;;;;;;;;17.60;27.79;97654.75;5054932;28;19962;-87
2023/03/15 08:29:50;;;;;;;;;;;;;;;18.43;27.20;97654.78;5055202;28;19917;-88
2023/03/15 08:32:16;;;;;;;;;;;;;;;17.47;27.92;97659.91;5054550;28;20372;-87
2023/03/15 08:34:42;;;;;;;;;;;;;;;16.61;30.03;97665.91;5054831;28;19928;-87
2023/03/15 08:37:09;;;;;;;;;;;;;;;17.00;28.87;97657.59;5053846;28;19920;-87
2023/03/15 08:39:35;;;;;;;;;;;;;;;17.22;29.01;97664.72;5054769;28;20008;-86
2023/03/15 08:42:01;;;;;;;;;;;;;;;15.81;31.68;97664.44;5054769;28;19921;-86
2023/03/15 08:44:27;;;;;;;;;;;;;;;15.19;31.23;97669.97;5054447;28;19966;-86
2023/03/15 08:46:53;;;;;;;;;;;;;;;14.75;32.75;97671.22;5054843;28;19917;-86
2023/03/15 08:49:19;;;;;;;;;;;;;;;16.83;28.65;97667.50;5052766;28;20423;-88
2023/03/15 08:51:45;;;;;;;;;;;;;;;16.45;30.45;97676.53;5034886;28;19924;-87
2023/03/15 08:54:13;;;;;;;;;;;;;;;17.03;29.07;97674.25;5053872;28;19928;-88
2023/03/15 08:56:40;;;;;;;;;;;;;;;16.08;31.01;97681.56;5054965;28;20272;-87
2023/03/15 08:59:09;;;;;;;;;;;;;;;17.99;27.82;97677.66;5050395;28;19921;-88
2023/03/15 09:01:35;;;;;;;;;;;;;;;18.57;26.99;97694.44;5054452;28;19924;-87
2023/03/15 09:04:01;;;;;;;;;;;;;;;21.17;23.15;97676.03;5054382;28;19931;-88
2023/03/15 09:06:27;;;;;;;;;;;;;;;20.02;23.93;97672.88;5068799;28;20426;-87
2023/03/15 09:08:54;;;;;;;;;;;;;;;19.42;24.11;97687.47;5054329;28;20376;-87
2023/03/15 09:11:20;;;;;;;;;;;;;;;18.36;27.78;97707.63;5053709;28;19928;-87
2023/03/15 09:13:46;;;;;;;;;;;;;;;17.47;27.61;97695.19;5054620;28;19917;-89
2023/03/15 09:16:13;;;;;;;;;;;;;;;17.45;27.07;97700.34;5054494;28;19920;-88
2023/03/15 09:18:43;;;;;;;;;;;;;;;19.69;24.33;97688.38;5054089;28;20383;-88
2023/03/15 09:21:09;;;;;;;;;;;;;;;17.23;27.79;97708.69;5054285;28;19921;-87
2023/03/15 09:23:35;;;;;;;;;;;;;;;16.78;28.97;97711.47;5053907;28;19917;-87
2023/03/15 09:26:01;;;;;;;;;;;;;;;17.87;27.78;97708.63;5052615;28;19928;-88
2023/03/15 09:28:27;;;;;;;;;;;;;;;17.93;25.21;97705.03;5053835;28;20277;-87
2023/03/15 09:30:53;;;;;;;;;;;;;;;15.98;30.62;97698.94;5054392;28;20531;-86
2023/03/15 09:33:21;;;;;;;;;;;;;;;15.76;32.12;97715.44;5053938;28;19924;-87
2023/03/15 09:35:50;;;;;;;;;;;;;;;17.64;28.34;97717.38;5053997;28;19924;-88
2023/03/15 09:38:17;;;;;;;;;;;;;;;17.50;26.37;97708.28;5053585;28;19923;-89
2023/03/15 09:40:44;;;;;;;;;;;;;;;15.75;29.76;97713.81;5066112;28;19951;-88
2023/03/15 09:43:12;;;;;;;;;;;;;;;17.73;28.04;97720.56;5064612;28;19927;-87
2023/03/15 09:45:57;;;;;;;;;;;;;;;18.82;25.15;97719.31;5053989;28;19917;-87
2023/03/15 09:48:27;;;;;;;;;;;;;;;19.72;24.02;97721.75;5053265;28;19921;-88
2023/03/15 09:50:59;;;;;;;;;;;;;;;20.61;22.95;97715.94;5053747;28;19967;-88
2023/03/15 09:53:30;;;;;;;;;;;;;;;18.85;25.96;97729.63;5054071;28;19917;-87
2023/03/15 09:55:57;;;;;;;;;;;;;;;17.13;26.28;97726.13;5053323;28;19919;-86
2023/03/15 09:58:25;;;;;;;;;;;;;;;18.40;26.17;97730.63;5053508;28;20345;-87
2023/03/15 10:00:53;;;;;;;;;;;;;;;17.03;29.16;97720.59;5053754;28;19913;-87
2023/03/15 10:03:25;;;;;;;;;;;;;;;19.36;23.94;97728.88;5052231;28;19928;-88
2023/03/15 10:05:55;;;;;;;;;;;;;;;19.23;23.92;97738.88;5052344;28;20300;-88
2023/03/15 10:08:21;;;;;;;;;;;;;;;17.95;25.77;97737.94;5053346;28;19962;-87
2023/03/15 10:10:53;;;;;;;;;;;;;;;17.51;28.59;97746.75;5069048;28;20342;-86
2023/03/15 10:13:25;;;;;;;;;;;;;;;18.14;24.17;97745.81;5053673;28;19920;-88
2023/03/15 10:15:56;;;;;;;;;;;;;;;19.41;25.77;97753.50;5053810;28;20436;-87
2023/03/15 10:18:36;;;;;;;;;;;;;;;18.33;24.44;97753.69;5053313;28;19921;-87
2023/03/15 10:21:11;;;;;;;;;;;;;;;17.88;26.22;97760.19;5053183;28;19933;-87
2023/03/15 10:23:41;;;;;;;;;;;;;;;17.94;25.28;97764.16;5052995;28;19928;-88
2023/03/15 10:26:11;;;;;;;;;;;;;;;18.33;25.87;97755.69;5053572;28;19921;-86
2023/03/15 10:28:38;;;;;;;;;;;;;;;18.92;25.31;97756.59;5053448;28;19928;-87
2023/03/15 10:31:12;;;;;;;;;;;;;;;19.13;26.08;97762.81;5052631;28;19917;-87
2023/03/15 10:33:38;;;;;;;;;;;;;;;19.27;23.25;97764.72;5053308;28;19925;-88
2023/03/15 10:36:16;;;;;;;;;;;;;;;19.62;23.07;97760.88;5053698;28;20258;-87
2023/03/15 10:38:42;;;;;;;;;;;;;;;19.60;24.51;97769.63;5051228;28;20331;-86
2023/03/15 10:41:09;;;;;;;;;;;;;;;17.68;26.96;97768.16;5061673;28;19942;-87
2023/03/15 10:43:36;;;;;;;;;;;;;;;18.61;25.47;97764.72;5073346;28;19999;-88
2023/03/15 10:46:04;;;;;;;;;;;;;;;19.83;23.68;97769.81;5073472;28;19924;-86
2023/03/15 10:48:32;;;;;;;;;;;;;;;19.86;22.81;97768.19;5054894;28;19917;-88
2023/03/15 10:51:06;;;;;;;;;;;;;;;20.33;23.73;97772.88;5056978;28;19960;-88
2023/03/15 10:53:33;;;;;;;;;;;;;;;19.32;24.51;97775.41;5057216;28;20011;-88
2023/03/15 10:56:01;;;;;;;;;;;;;;;18.71;26.49;97782.56;5055578;28;20331;-88
2023/03/15 10:58:30;;;;;;;;;;;;;;;18.14;28.34;97775.59;5056681;28;19916;-86
2023/03/15 11:01:01;;;;;;;;;;;;;;;17.31;28.17;97778.06;5056638;28;19912;-87
2023/03/15 11:03:27;;;;;;;;;;;;;;;17.98;26.03;97770.50;5056818;28;19917;-88
2023/03/15 11:05:55;;;;;;;;;;;;;;;17.88;26.21;97771.28;5056675;28;19970;-87
2023/03/15 11:08:23;;;;;;;;;;;;;;;17.66;29.05;97767.78;5056992;28;20330;-87
2023/03/15 11:10:56;;;;;;;;;;;;;;;17.93;26.77;97780.03;5056003;28;19967;-88
2023/03/15 11:13:24;;;;;;;;;;;;;;;16.84;27.78;97796.63;5056360;28;19931;-86
2023/03/15 11:15:53;;;;;;;;;;;;;;;18.33;24.27;97777.91;5056493;28;19916;-87
2023/03/15 11:18:24;;;;;;;;;;;;;;;18.19;24.34;97780.75;5044042;28;19918;-88
2023/03/15 11:20:54;;;;;;;;;;;;;;;19.26;25.25;97777.03;5035645;28;20308;-88
2023/03/15 11:23:24;;;;;;;;;;;;;;;19.32;25.64;97769.84;5055915;28;19923;-87
2023/03/15 11:25:50;;;;;;;;;;;;;;;19.19;25.84;97768.72;5056212;28;19932;-88
2023/03/15 11:28:17;;;;;;;;;;;;;;;19.61;24.13;97762.84;5055984;28;19927;-88
2023/03/15 11:30:44;;;;;;;;;;;;;;;19.85;24.28;97758.25;5055950;28;20357;-88
2023/03/15 11:33:19;;;;;;;;;;;;;;;21.00;20.50;97758.06;5070398;28;19921;-89
2023/03/15 11:35:47;;;;;;;;;;;;;;;21.02;21.44;97758.41;5056824;28;19917;-88
2023/03/15 11:38:17;;;;;;;;;;;;;;;20.00;24.22;97773.59;5048117;28;21946;-88
2023/03/15 11:40:46;;;;;;;;;;;;;;;18.88;26.31;97787.22;5057965;28;20403;-88
2023/03/15 11:43:30;;;;;;;;;;;;;;;19.71;24.01;97781.47;5055985;28;19935;-88
2023/03/15 11:46:09;;;;;;;;;;;;;;;19.07;24.46;97780.34;5055922;28;19917;-87
2023/03/15 11:48:45;;;;;;;;;;;;;;;20.41;21.14;97781.94;5056101;28;20003;-88
2023/03/15 11:51:12;;;;;;;;;;;;;;;19.79;23.50;97779.41;5055908;28;19917;-88
2023/03/15 11:54:02;;;;;;;;;;;;;;;18.89;25.45;97782.44;5055913;28;20283;-87
2023/03/15 11:56:47;;;;;;;;;;;;;;;19.23;23.61;97780.63;5055000;28;19928;-88
2023/03/15 11:59:16;;;;;;;;;;;;;;;19.72;22.90;97774.69;5055660;28;20415;-89
2023/03/15 12:01:47;;;;;;;;;;;;;;;18.68;23.83;97788.13;5054906;28;19928;-89
2023/03/15 12:04:31;;;;;;;;;;;;;;;18.66;25.54;97794.09;5062303;28;19931;-88
2023/03/15 12:06:59;;;;;;;;;;;;;;;19.53;24.44;97785.59;5061788;28;19975;-89
2023/03/15 12:09:30;;;;;;;;;;;;;;;18.86;24.23;97791.59;5055803;28;20353;-89
2023/03/15 12:12:01;;;;;;;;;;;;;;;19.45;22.64;97781.28;5053672;28;20395;-89
2023/03/15 12:14:29;;;;;;;;;;;;;;;20.64;22.33;97776.47;5054329;28;19913;-89
2023/03/15 12:17:13;;;;;;;;;;;;;;;19.88;24.74;97783.28;5043675;28;19923;-89
2023/03/15 12:19:40;;;;;;;;;;;;;;;19.48;25.94;97795.19;5035988;28;19936;-88
2023/03/15 12:22:13;;;;;;;;;;;;;;;18.04;27.99;97779.97;5035688;28;19917;-87
2023/03/15 12:24:39;;;;;;;;;;;;;;;18.87;24.61;97777.28;5035876;28;20292;-89
2023/03/15 12:27:13;;;;;;;;;;;;;;;20.18;21.76;97776.22;5052620;28;19944;-89
2023/03/15 12:29:40;;;;;;;;;;;;;;;21.13;19.90;97775.81;5054625;28;20272;-89
2023/03/15 12:32:10;;;;;;;;;;;;;;;21.59;21.83;97768.69;5054835;28;20019;-89
2023/03/15 12:34:42;;;;;;;;;;;;;;;22.25;20.77;97777.91;5055411;28;20340;-89
2023/03/15 12:37:13;;;;;;;;;;;;;;;21.84;21.37;97772.66;5054945;28;20012;-89
2023/03/15 12:39:41;;;;;;;;;;;;;;;20.87;23.04;97784.94;5054928;28;19913;-89
2023/03/15 12:42:33;;;;;;;;;;;;;;;21.16;21.82;97785.34;5071749;28;20379;-89
2023/03/15 12:45:28;;;;;;;;;;;;;;;21.94;20.59;97771.69;5074666;28;20384;-89
2023/03/15 12:47:54;;;;;;;;;;;;;;;20.34;25.34;97790.41;5046993;28;19970;-88
2023/03/15 12:50:36;;;;;;;;;;;;;;;19.79;23.80;97788.53;5054738;28;19921;-88
2023/03/15 12:53:22;;;;;;;;;;;;;;;19.00;25.72;97780.38;5054761;28;19920;-87